Time;durP1;ratioP1;P1;durP2;ratioP2;P2;SDS_P1;SDS_P2;PMS_P1;PMS_P2;Temp;Humidity;BMP_temperature;BMP_pressure;BME280_temperature;BME280_humidity;BME280_pressure;Samples;Min_cycle;Max_cycle;Signal;HPM_P1;HPM_P2
2023/12/30 00:02:19;;;;;;;4.10;1.00;;;;;;;8.57;77.88;98908.91;5090704;28;20461;-80
2023/12/30 00:04:45;;;;;;;3.40;0.80;;;;;;;8.57;77.79;98911.53;5091384;28;20082;-78
2023/12/30 00:07:12;;;;;;;1.90;0.60;;;;;;;8.56;77.60;98921.16;5090976;28;20199;-78
2023/12/30 00:09:40;;;;;;;2.83;0.60;;;;;;;8.54;77.41;98924.81;5089549;28;20040;-79
2023/12/30 00:12:06;;;;;;;3.45;0.68;;;;;;;8.53;77.89;98931.88;5090662;28;20139;-78
2023/12/30 00:14:33;;;;;;;3.35;0.75;;;;;;;8.51;77.63;98932.84;5089062;28;20055;-80
2023/12/30 00:17:00;;;;;;;3.10;0.70;;;;;;;8.49;78.07;98930.34;5090637;28;20051;-79
2023/12/30 00:19:27;;;;;;;2.88;1.10;;;;;;;8.50;78.26;98931.16;5090913;28;20051;-78
2023/12/30 00:21:53;;;;;;;3.85;0.90;;;;;;;8.48;78.05;98939.97;5090736;28;20105;-78
2023/12/30 00:24:20;;;;;;;3.90;0.73;;;;;;;8.48;78.47;98942.59;5090753;28;20059;-83
2023/12/30 00:26:46;;;;;;;3.28;0.77;;;;;;;8.47;78.29;98937.44;5090409;28;20508;-78
2023/12/30 00:29:13;;;;;;;6.35;1.17;;;;;;;8.46;78.54;98941.84;5090382;28;20044;-79
2023/12/30 00:31:39;;;;;;;3.08;0.63;;;;;;;8.50;78.61;98941.66;5090404;28;20048;-79
2023/12/30 00:34:06;;;;;;;5.63;0.80;;;;;;;8.48;78.43;98947.00;5093171;28;20047;-78
2023/12/30 00:36:33;;;;;;;4.65;1.05;;;;;;;8.50;78.56;98949.53;5094491;28;20040;-79
2023/12/30 00:39:00;;;;;;;3.95;0.98;;;;;;;8.51;78.47;98945.97;5094319;28;20082;-79
2023/12/30 00:41:27;;;;;;;3.10;0.90;;;;;;;8.50;78.39;98942.50;5094724;28;20109;-78
2023/12/30 00:43:53;;;;;;;4.07;0.85;;;;;;;8.51;78.40;98957.31;5094561;28;20052;-78
2023/12/30 00:46:21;;;;;;;14.07;1.60;;;;;;;8.50;78.52;98953.00;5094249;28;20742;-79
2023/12/30 00:48:48;;;;;;;6.35;1.40;;;;;;;8.51;78.57;98949.44;5094479;28;20515;-78
2023/12/30 00:51:23;;;;;;;4.40;1.08;;;;;;;8.52;79.27;98964.22;5094388;28;20130;-78
2023/12/30 00:53:50;;;;;;;4.95;1.05;;;;;;;8.55;79.17;98963.22;5094446;28;20051;-79
2023/12/30 00:56:17;;;;;;;5.78;1.35;;;;;;;8.55;79.14;98969.31;5094073;28;20044;-79
2023/12/30 00:58:43;;;;;;;4.10;1.35;;;;;;;8.54;78.84;98958.91;5092528;28;20048;-79
2023/12/30 01:01:10;;;;;;;2.80;1.05;;;;;;;8.56;78.52;98964.94;5093217;28;20059;-79
2023/12/30 01:03:37;;;;;;;9.20;1.38;;;;;;;8.54;78.37;98965.03;5093290;28;20052;-79
2023/12/30 01:06:03;;;;;;;9.63;1.20;;;;;;;8.53;78.44;98967.72;5094144;28;20052;-80
2023/12/30 01:08:30;;;;;;;4.03;0.95;;;;;;;8.51;78.58;98980.91;5092508;28;20097;-79
2023/12/30 01:10:56;;;;;;;5.18;1.00;;;;;;;8.50;78.35;98988.88;5093938;28;20856;-78
2023/12/30 01:13:23;;;;;;;5.53;1.08;;;;;;;8.47;78.50;98982.03;5093832;28;20060;-80
2023/12/30 01:15:49;;;;;;;3.85;1.05;;;;;;;8.44;78.36;98984.84;5092718;28;20054;-78
2023/12/30 01:18:16;;;;;;;5.57;1.10;;;;;;;8.43;77.91;98989.25;5093333;28;20108;-77
2023/12/30 01:20:43;;;;;;;6.45;1.38;;;;;;;8.39;78.30;98987.75;5092571;28;20067;-79
2023/12/30 01:23:09;;;;;;;4.47;0.68;;;;;;;8.37;78.12;98986.97;5093601;28;20516;-79
2023/12/30 01:25:38;;;;;;;6.28;1.58;;;;;;;8.34;78.11;98993.25;5093848;28;20062;-78
2023/12/30 01:28:07;;;;;;;7.80;1.10;;;;;;;8.33;78.29;98990.72;5093451;28;20044;-78
2023/12/30 01:30:36;;;;;;;7.60;1.20;;;;;;;8.30;78.20;98993.56;5093630;28;20459;-79
2023/12/30 01:33:04;;;;;;;5.07;1.10;;;;;;;8.29;78.01;98999.72;5093549;28;20133;-79
2023/12/30 01:35:32;;;;;;;6.57;1.23;;;;;;;8.25;78.19;99000.81;5092486;28;20048;-78
2023/12/30 01:37:58;;;;;;;6.10;1.40;;;;;;;8.24;78.14;99005.25;5093407;28;20048;-81
2023/12/30 01:40:28;;;;;;;6.53;1.33;;;;;;;8.21;78.44;99014.13;5093228;28;20056;-78
2023/12/30 01:42:55;;;;;;;3.88;1.20;;;;;;;8.19;78.76;99005.50;5092213;28;20459;-78
2023/12/30 01:45:22;;;;;;;8.10;1.45;;;;;;;8.19;78.70;99012.53;5092821;28;20420;-78
2023/12/30 01:47:49;;;;;;;8.65;1.83;;;;;;;8.18;78.34;99013.47;5093181;28;20104;-78
2023/12/30 01:50:16;;;;;;;5.75;1.10;;;;;;;8.16;78.45;99010.09;5092875;28;20055;-78
2023/12/30 01:52:44;;;;;;;6.50;1.23;;;;;;;8.15;78.32;99019.72;5091567;28;20123;-78
2023/12/30 01:55:11;;;;;;;5.88;1.15;;;;;;;8.14;78.01;99012.81;5091729;28;20048;-77
2023/12/30 01:57:38;;;;;;;4.68;1.33;;;;;;;8.14;78.39;99022.44;5093066;28;20102;-78
2023/12/30 02:00:05;;;;;;;4.22;1.38;;;;;;;8.12;78.45;99021.69;5093055;28;20404;-78
2023/12/30 02:02:32;;;;;;;6.03;1.42;;;;;;;8.11;79.05;99028.72;5093010;28;20044;-78
2023/12/30 02:04:59;;;;;;;9.07;1.70;;;;;;;8.12;79.16;99021.69;5092641;28;20047;-78
2023/12/30 02:07:26;;;;;;;3.15;1.08;;;;;;;8.15;79.80;99034.63;5091605;28;20074;-80
2023/12/30 02:09:52;;;;;;;4.68;1.00;;;;;;;8.18;80.02;99037.91;5091840;28;20056;-79
2023/12/30 02:12:19;;;;;;;6.57;1.77;;;;;;;8.21;79.77;99040.34;5092882;28;20055;-78
2023/12/30 02:14:45;;;;;;;7.72;1.58;;;;;;;8.26;79.89;99042.69;5092373;28;20051;-78
2023/12/30 02:17:12;;;;;;;6.28;1.42;;;;;;;8.30;79.78;99043.38;5093009;28;20094;-78
2023/12/30 02:19:38;;;;;;;6.40;1.30;;;;;;;8.33;79.10;99037.94;5092505;28;20044;-78
2023/12/30 02:22:05;;;;;;;7.00;1.75;;;;;;;8.35;78.92;99051.81;5092484;28;20139;-78
2023/12/30 02:24:32;;;;;;;7.25;1.52;;;;;;;8.39;79.05;99050.69;5091376;28;20051;-78
2023/12/30 02:26:58;;;;;;;8.52;1.25;;;;;;;8.41;79.08;99058.47;5092622;28;20101;-77
2023/12/30 02:29:25;;;;;;;9.35;2.00;;;;;;;8.41;78.53;99059.28;5092598;28;20048;-77
2023/12/30 02:31:51;;;;;;;7.55;1.38;;;;;;;8.40;78.41;99051.50;5091178;28;20044;-78
2023/12/30 02:34:18;;;;;;;7.78;1.85;;;;;;;8.38;78.16;99059.50;5092056;28;20056;-78
2023/12/30 02:36:46;;;;;;;5.30;1.20;;;;;;;8.36;78.18;99061.34;5092072;28;20515;-78
2023/12/30 02:39:14;;;;;;;6.25;1.55;;;;;;;8.34;78.20;99058.00;5091308;28;20059;-79
2023/12/30 02:41:40;;;;;;;11.10;2.00;;;;;;;8.32;77.90;99068.56;5091025;28;20051;-81
2023/12/30 02:44:07;;;;;;;6.35;1.52;;;;;;;8.32;78.24;99065.09;5092278;28;20056;-78
2023/12/30 02:46:34;;;;;;;7.68;1.45;;;;;;;8.30;77.97;99066.97;5090555;28;20044;-78
2023/12/30 02:49:03;;;;;;;8.40;1.75;;;;;;;8.28;78.08;99079.31;5090697;28;20127;-78
2023/12/30 02:51:30;;;;;;;5.55;1.45;;;;;;;8.27;78.12;99080.25;5090735;28;20051;-77
2023/12/30 02:53:57;;;;;;;7.68;1.30;;;;;;;8.23;78.52;99076.97;5092410;28;20051;-77
2023/12/30 02:56:25;;;;;;;9.70;1.65;;;;;;;8.22;77.98;99083.13;5091650;28;20097;-80
2023/12/30 02:58:56;;;;;;;6.22;1.50;;;;;;;8.22;78.05;99083.13;5091963;28;20565;-78
2023/12/30 03:01:24;;;;;;;8.57;1.92;;;;;;;8.21;78.02;99077.06;5092030;28;20048;-77
2023/12/30 03:03:52;;;;;;;4.30;1.33;;;;;;;8.20;78.21;99080.63;5091809;28;20050;-77
2023/12/30 03:06:20;;;;;;;7.47;1.48;;;;;;;8.20;78.05;99079.78;5091671;28;20075;-79
2023/12/30 03:08:48;;;;;;;7.05;1.35;;;;;;;8.19;78.30;99099.06;5092072;28;20048;-78
2023/12/30 03:11:15;;;;;;;7.53;1.77;;;;;;;8.19;77.79;99097.25;5090579;28;20058;-78
2023/12/30 03:13:41;;;;;;;6.32;1.42;;;;;;;8.19;77.92;99092.03;5091826;28;20040;-76
2023/12/30 03:16:10;;;;;;;7.25;1.30;;;;;;;8.17;77.53;99088.66;5091345;28;20051;-80
2023/12/30 03:18:41;;;;;;;10.63;1.38;;;;;;;8.14;77.47;99094.06;5090410;28;20459;-78
2023/12/30 03:21:09;;;;;;;7.40;1.50;;;;;;;8.11;77.45;99102.09;5091494;28;20621;-78
2023/12/30 03:23:37;;;;;;;8.93;1.42;;;;;;;8.10;77.47;99099.59;5091644;28;20079;-78
2023/12/30 03:26:04;;;;;;;5.82;1.20;;;;;;;8.08;77.86;99099.69;5091386;28;20079;-78
2023/12/30 03:28:31;;;;;;;5.57;1.30;;;;;;;8.07;77.87;99098.81;5091091;28;20066;-78
2023/12/30 03:30:58;;;;;;;9.98;1.60;;;;;;;8.06;77.51;99101.53;5090277;28;20503;-78
2023/12/30 03:33:25;;;;;;;9.15;1.48;;;;;;;8.03;77.52;99107.78;5090909;28;20051;-78
2023/12/30 03:35:51;;;;;;;6.80;1.38;;;;;;;8.02;77.69;99107.88;5091357;28;20079;-78
2023/12/30 03:38:18;;;;;;;6.78;1.27;;;;;;;8.00;77.68;99102.72;5091260;28;20048;-78
2023/12/30 03:40:45;;;;;;;5.43;1.60;;;;;;;7.99;77.57;99119.38;5091336;28;20121;-78
2023/12/30 03:43:12;;;;;;;10.43;2.17;;;;;;;7.97;77.86;99118.63;5091129;28;20127;-79
2023/12/30 03:45:39;;;;;;;7.60;1.17;;;;;;;7.95;77.57;99116.09;5089687;28;20083;-78
2023/12/30 03:48:06;;;;;;;6.15;1.52;;;;;;;7.94;77.59;99114.41;5090037;28;20130;-80
2023/12/30 03:50:33;;;;;;;10.35;1.67;;;;;;;7.94;77.43;99113.56;5091089;28;20048;-78
2023/12/30 03:53:02;;;;;;;9.18;1.75;;;;;;;7.92;77.42;99112.78;5090949;28;20048;-78
2023/12/30 03:55:29;;;;;;;8.07;1.50;;;;;;;7.91;77.71;99111.97;5089578;28;20083;-78
2023/12/30 03:57:56;;;;;;;6.80;1.65;;;;;;;7.90;77.75;99128.63;5090867;28;20599;-77
2023/12/30 04:00:22;;;;;;;10.80;1.83;;;;;;;7.89;77.74;99116.44;5090946;28;20055;-78
2023/12/30 04:02:49;;;;;;;7.13;1.55;;;;;;;7.90;78.05;99118.13;5090885;28;20050;-77
2023/12/30 04:05:15;;;;;;;11.20;1.85;;;;;;;7.91;78.28;99125.06;5090522;28;20056;-78
2023/12/30 04:07:42;;;;;;;6.90;1.15;;;;;;;7.91;78.23;99127.69;5089167;28;20048;-80
2023/12/30 04:10:08;;;;;;;10.27;1.63;;;;;;;7.92;77.96;99125.88;5090668;28;20500;-79
2023/12/30 04:12:35;;;;;;;5.93;1.75;;;;;;;7.91;77.95;99125.06;5089347;28;20059;-77
2023/12/30 04:15:02;;;;;;;10.45;1.90;;;;;;;7.91;78.09;99132.94;5090681;28;20044;-80
2023/12/30 04:17:29;;;;;;;7.28;2.20;;;;;;;7.92;78.03;99132.00;5089528;28;20048;-78
2023/12/30 04:19:55;;;;;;;7.70;1.95;;;;;;;7.92;78.05;99126.75;5090748;28;20054;-78
2023/12/30 04:22:24;;;;;;;9.65;1.90;;;;;;;7.91;78.53;99130.31;5090688;28;20109;-80
2023/12/30 04:24:51;;;;;;;8.60;1.83;;;;;;;7.91;78.07;99138.16;5090353;28;20044;-79
2023/12/30 04:27:19;;;;;;;12.13;1.90;;;;;;;7.91;78.22;99130.31;5090301;28;20125;-78
2023/12/30 04:29:46;;;;;;;9.18;1.98;;;;;;;7.90;78.60;99138.25;5090384;28;20070;-78
2023/12/30 04:32:12;;;;;;;8.70;1.80;;;;;;;7.90;78.25;99136.47;5090510;28;20080;-78
2023/12/30 04:34:39;;;;;;;9.43;2.28;;;;;;;7.90;78.43;99133.00;5090578;28;20140;-79
2023/12/30 04:37:06;;;;;;;5.55;1.50;;;;;;;7.90;78.62;99131.25;5090178;28;20078;-78
2023/12/30 04:39:32;;;;;;;12.18;1.80;;;;;;;7.90;78.46;99128.63;5090171;28;20048;-77
2023/12/30 04:41:59;;;;;;;11.65;2.15;;;;;;;7.90;78.71;99133.88;5090597;28;20105;-79
2023/12/30 04:44:26;;;;;;;9.35;2.10;;;;;;;7.89;78.25;99134.78;5090592;28;20044;-79
2023/12/30 04:46:52;;;;;;;14.02;2.03;;;;;;;7.89;78.77;99145.25;5090082;28;20090;-77
2023/12/30 04:49:19;;;;;;;20.70;2.53;;;;;;;7.90;79.17;99136.47;5090438;28;20099;-79
2023/12/30 04:51:45;;;;;;;10.73;2.10;;;;;;;7.90;78.57;99141.72;5090347;28;20078;-78
2023/12/30 04:54:12;;;;;;;9.48;1.67;;;;;;;7.91;78.80;99138.16;5089400;28;20409;-80
2023/12/30 04:56:39;;;;;;;7.82;1.75;;;;;;;7.91;78.83;99132.06;5090470;28;20044;-78
2023/12/30 04:59:06;;;;;;;15.00;2.10;;;;;;;7.93;78.77;99138.91;5090170;28;20548;-79
2023/12/30 05:01:32;;;;;;;9.02;2.08;;;;;;;7.94;78.45;99145.88;5090524;28;20044;-77
2023/12/30 05:03:59;;;;;;;9.05;2.58;;;;;;;7.95;78.66;99142.31;5089858;28;20081;-77
2023/12/30 05:06:26;;;;;;;11.40;2.10;;;;;;;7.98;78.50;99135.19;5090532;28;20050;-78
2023/12/30 05:08:53;;;;;;;10.73;1.70;;;;;;;7.97;78.22;99139.59;5090155;28;20048;-78
2023/12/30 05:11:20;;;;;;;8.93;1.65;;;;;;;7.97;78.62;99150.09;5090141;28;20118;-78
2023/12/30 05:13:46;;;;;;;7.68;1.73;;;;;;;7.98;78.23;99153.53;5089931;28;20413;-78
2023/12/30 05:16:13;;;;;;;7.15;1.65;;;;;;;7.98;78.30;99156.16;5090090;28;20097;-78
2023/12/30 05:18:40;;;;;;;8.50;2.03;;;;;;;7.98;78.49;99156.16;5089998;28;20097;-79
2023/12/30 05:21:16;;;;;;;12.55;2.17;;;;;;;7.97;77.38;99164.97;5092337;28;20485;-79
2023/12/30 05:23:43;;;;;;;7.15;1.95;;;;;;;7.99;78.10;99171.81;5094317;28;20134;-78
2023/12/30 05:26:14;;;;;;;9.93;2.20;;;;;;;7.99;78.20;99177.03;5093673;28;20134;-78
2023/12/30 05:28:40;;;;;;;14.90;2.03;;;;;;;7.98;77.87;99177.97;5093806;28;20151;-77
2023/12/30 05:31:07;;;;;;;8.93;1.42;;;;;;;7.99;78.35;99173.59;5093721;28;20116;-79
2023/12/30 05:33:34;;;;;;;9.63;1.80;;;;;;;7.99;78.57;99179.66;5092276;28;20523;-79
2023/12/30 05:36:01;;;;;;;11.35;2.00;;;;;;;8.01;78.66;99176.97;5093474;28;20074;-78
2023/12/30 05:38:27;;;;;;;13.77;2.80;;;;;;;8.03;78.48;99175.94;5093719;28;20054;-79
2023/12/30 05:40:54;;;;;;;13.18;2.10;;;;;;;8.04;78.61;99177.63;5093380;28;20044;-79
2023/12/30 05:43:20;;;;;;;19.65;2.35;;;;;;;8.04;78.33;99179.41;5093468;28;20060;-78
2023/12/30 05:45:49;;;;;;;7.60;1.70;;;;;;;8.04;78.13;99185.47;5092840;28;20488;-79
2023/12/30 05:48:16;;;;;;;9.85;2.42;;;;;;;8.05;78.39;99178.47;5093996;28;20056;-78
2023/12/30 05:50:43;;;;;;;9.05;1.98;;;;;;;8.05;78.02;99200.31;5093351;28;20131;-80
2023/12/30 05:53:11;;;;;;;10.82;1.92;;;;;;;8.05;78.15;99187.19;5093277;28;20079;-78
2023/12/30 05:55:38;;;;;;;10.30;2.15;;;;;;;8.06;78.10;99195.88;5092639;28;20036;-78
2023/12/30 05:58:05;;;;;;;10.85;1.75;;;;;;;8.04;78.20;99203.00;5092099;28;20044;-78
2023/12/30 06:00:32;;;;;;;9.57;2.17;;;;;;;8.05;78.49;99202.06;5092984;28;20443;-80
2023/12/30 06:02:59;;;;;;;10.52;1.95;;;;;;;8.03;78.48;99201.28;5092883;28;20048;-79
2023/12/30 06:05:26;;;;;;;9.95;1.27;;;;;;;8.05;78.93;99194.22;5092887;28;20454;-78
2023/12/30 06:07:52;;;;;;;11.90;2.45;;;;;;;8.07;78.94;99208.06;5093036;28;20050;-77
2023/12/30 06:10:19;;;;;;;9.60;1.98;;;;;;;8.08;78.82;99215.00;5092791;28;20052;-78
2023/12/30 06:12:46;;;;;;;9.25;1.73;;;;;;;8.10;78.85;99217.56;5091615;28;20492;-78
2023/12/30 06:15:12;;;;;;;15.15;2.22;;;;;;;8.11;79.14;99220.06;5092761;28;20044;-78
2023/12/30 06:17:39;;;;;;;22.08;2.05;;;;;;;8.12;79.02;99221.78;5092648;28;20102;-81
2023/12/30 06:20:09;;;;;;;9.35;2.03;;;;;;;8.14;79.10;99216.44;5091543;28;20079;-79
2023/12/30 06:22:35;;;;;;;12.88;2.30;;;;;;;8.16;78.98;99217.19;5091532;28;20145;-79
2023/12/30 06:25:03;;;;;;;7.53;1.83;;;;;;;8.18;79.25;99229.28;5091448;28;20044;-78
2023/12/30 06:27:30;;;;;;;7.15;2.05;;;;;;;8.21;79.41;99223.88;5091000;28;20417;-77
2023/12/30 06:29:57;;;;;;;9.75;2.13;;;;;;;8.23;79.13;99222.94;5091207;28;20473;-78
2023/12/30 06:32:23;;;;;;;8.10;2.10;;;;;;;8.24;79.72;99222.00;5092189;28;20040;-78
2023/12/30 06:34:50;;;;;;;9.63;1.95;;;;;;;8.28;79.66;99236.63;5092537;28;20564;-81
2023/12/30 06:37:16;;;;;;;11.43;2.65;;;;;;;8.30;79.32;99237.41;5090852;28;20047;-80
2023/12/30 06:39:44;;;;;;;10.77;2.15;;;;;;;8.32;79.26;99240.78;5091008;28;20412;-78
2023/12/30 06:42:11;;;;;;;13.63;2.83;;;;;;;8.32;78.61;99249.50;5092397;28;20044;-78
2023/12/30 06:44:38;;;;;;;13.18;2.83;;;;;;;8.34;79.17;99258.13;5092214;28;20488;-77
2023/12/30 06:47:05;;;;;;;13.02;2.58;;;;;;;8.39;79.26;99249.16;5092205;28;20146;-77
2023/12/30 06:49:31;;;;;;;13.10;2.80;;;;;;;8.40;79.00;99254.31;5092271;28;20479;-79
2023/12/30 06:51:58;;;;;;;13.73;3.33;;;;;;;8.42;79.15;99262.97;5092082;28;20408;-78
2023/12/30 06:54:25;;;;;;;11.35;2.47;;;;;;;8.46;79.08;99267.06;5090763;28;20507;-77
2023/12/30 06:56:53;;;;;;;12.70;2.28;;;;;;;8.48;78.58;99278.34;5090393;28;20044;-79
2023/12/30 06:59:20;;;;;;;15.15;2.83;;;;;;;8.48;79.01;99262.59;5091715;28;20127;-77
2023/12/30 07:01:47;;;;;;;8.98;2.72;;;;;;;8.51;79.00;99274.69;5092175;28;20143;-78
2023/12/30 07:04:14;;;;;;;9.43;2.00;;;;;;;8.53;78.95;99274.66;5090849;28;20048;-76
2023/12/30 07:06:41;;;;;;;15.27;2.40;;;;;;;8.53;78.59;99270.25;5092046;28;20054;-77
2023/12/30 07:09:07;;;;;;;6.75;2.40;;;;;;;8.54;78.24;99271.09;5091280;28;20048;-80
2023/12/30 07:11:34;;;;;;;13.52;3.13;;;;;;;8.53;77.80;99277.25;5091568;28;20048;-77
2023/12/30 07:14:00;;;;;;;9.73;2.92;;;;;;;8.50;77.64;99278.25;5091702;28;20088;-80
2023/12/30 07:16:27;;;;;;;11.27;2.45;;;;;;;8.45;77.82;99278.50;5091863;28;20044;-80
2023/12/30 07:18:53;;;;;;;18.77;3.47;;;;;;;8.43;77.87;99277.75;5091166;28;20051;-78
2023/12/30 07:21:20;;;;;;;10.88;2.47;;;;;;;8.43;77.81;99284.78;5091735;28;20481;-79
2023/12/30 07:23:47;;;;;;;12.05;2.47;;;;;;;8.41;77.95;99297.13;5091447;28;20076;-80
2023/12/30 07:26:14;;;;;;;12.27;2.67;;;;;;;8.40;78.07;99291.03;5091359;28;20134;-79
2023/12/30 07:28:40;;;;;;;11.25;2.70;;;;;;;8.37;77.89;99288.56;5090930;28;20110;-78
2023/12/30 07:31:07;;;;;;;12.82;2.65;;;;;;;8.36;78.49;99286.88;5091592;28;20117;-80
2023/12/30 07:33:35;;;;;;;10.02;2.60;;;;;;;8.34;78.42;99292.22;5091270;28;20058;-79
2023/12/30 07:36:04;;;;;;;13.70;2.97;;;;;;;8.33;78.10;99290.53;5091291;28;20127;-77
2023/12/30 07:38:30;;;;;;;12.45;2.30;;;;;;;8.32;78.06;99291.47;5090801;28;20048;-78
2023/12/30 07:40:57;;;;;;;12.77;2.90;;;;;;;8.31;78.39;99308.13;5090949;28;20048;-79
2023/12/30 07:43:24;;;;;;;14.38;2.72;;;;;;;8.31;78.42;99297.66;5090598;28;20051;-80
2023/12/30 07:45:51;;;;;;;12.40;3.15;;;;;;;8.31;78.75;99304.66;5090064;28;20408;-80
2023/12/30 07:48:17;;;;;;;8.32;2.55;;;;;;;8.32;78.91;99311.59;5090906;28;20091;-79
2023/12/30 07:50:44;;;;;;;14.38;3.72;;;;;;;8.33;78.69;99305.41;5090948;28;20122;-78
2023/12/30 07:53:10;;;;;;;12.02;2.40;;;;;;;8.33;78.57;99308.88;5090875;28;20048;-79
2023/12/30 07:55:37;;;;;;;11.77;3.00;;;;;;;8.34;78.93;99312.38;5091165;28;20040;-79
2023/12/30 07:58:04;;;;;;;10.95;2.53;;;;;;;8.34;78.75;99309.75;5091153;28;20048;-79
2023/12/30 08:00:31;;;;;;;9.90;2.75;;;;;;;8.33;78.41;99308.88;5090560;28;20071;-80
2023/12/30 08:02:58;;;;;;;17.17;3.78;;;;;;;8.34;78.46;99309.75;5090898;28;20485;-78
2023/12/30 08:05:25;;;;;;;11.93;3.15;;;;;;;8.36;78.54;99313.09;5090936;28;20067;-81
2023/12/30 08:07:52;;;;;;;10.60;3.00;;;;;;;8.39;78.39;99317.34;5090920;28;20048;-77
2023/12/30 08:10:19;;;;;;;17.40;3.42;;;;;;;8.38;78.27;99334.00;5090530;28;20633;-78
2023/12/30 08:12:45;;;;;;;15.45;3.53;;;;;;;8.38;77.98;99326.16;5090631;28;20572;-78
2023/12/30 08:15:12;;;;;;;10.00;3.42;;;;;;;8.37;78.17;99335.78;5090885;28;20057;-79
2023/12/30 08:17:39;;;;;;;20.65;4.43;;;;;;;8.35;77.70;99342.91;5090903;28;20127;-78
2023/12/30 08:20:06;;;;;;;7.10;3.30;;;;;;;8.35;77.99;99337.66;5090596;28;20048;-78
2023/12/30 08:22:33;;;;;;;18.05;3.45;;;;;;;8.37;78.18;99338.41;5090568;28;20127;-76
2023/12/30 08:25:00;;;;;;;14.02;3.83;;;;;;;8.37;77.77;99346.25;5089854;28;20101;-78
2023/12/30 08:27:26;;;;;;;10.43;3.35;;;;;;;8.37;78.08;99341.03;5089640;28;20155;-81
2023/12/30 08:29:53;;;;;;;10.73;3.55;;;;;;;8.37;78.25;99348.06;5090437;28;20400;-79
2023/12/30 08:32:19;;;;;;;10.40;3.55;;;;;;;8.37;77.92;99350.69;5090412;28;20478;-78
2023/12/30 08:34:46;;;;;;;9.60;3.28;;;;;;;8.36;77.87;99347.19;5090676;28;20105;-77
2023/12/30 08:37:13;;;;;;;9.70;3.40;;;;;;;8.34;78.02;99356.94;5090993;28;20059;-78
2023/12/30 08:39:39;;;;;;;12.50;3.25;;;;;;;8.32;77.86;99353.53;5089605;28;20048;-79
2023/12/30 08:42:06;;;;;;;12.98;3.30;;;;;;;8.34;78.37;99356.94;5090411;28;20083;-78
2023/12/30 08:44:37;;;;;;;9.32;3.08;;;;;;;8.34;78.51;99375.31;5090667;28;20055;-79
2023/12/30 08:47:04;;;;;;;9.00;2.50;;;;;;;8.33;78.16;99356.09;5090693;28;20097;-81
2023/12/30 08:49:31;;;;;;;16.30;3.75;;;;;;;8.33;78.48;99369.19;5090393;28;20101;-78
2023/12/30 08:51:58;;;;;;;14.50;3.67;;;;;;;8.34;78.48;99383.16;5089034;28;20048;-80
2023/12/30 08:54:25;;;;;;;10.02;2.30;;;;;;;8.35;78.92;99375.19;5090724;28;20044;-78
2023/12/30 08:56:53;;;;;;;14.93;3.17;;;;;;;8.38;79.20;99376.84;5094651;28;20044;-83
2023/12/30 08:59:21;;;;;;;10.57;3.15;;;;;;;8.39;79.10;99386.38;5093029;28;20538;-87
2023/12/30 09:01:48;;;;;;;15.77;2.90;;;;;;;8.43;79.21;99389.69;5092665;28;20071;-77
2023/12/30 09:04:15;;;;;;;12.00;3.30;;;;;;;8.43;79.06;99406.28;5073957;28;20133;-77
2023/12/30 09:06:41;;;;;;;11.65;3.33;;;;;;;8.46;79.33;99407.88;5073890;28;20503;-78
2023/12/30 09:09:08;;;;;;;17.20;3.53;;;;;;;8.46;78.91;99413.97;5073755;28;20088;-78
2023/12/30 09:11:38;;;;;;;14.07;2.47;;;;;;;8.48;79.07;99409.50;5077689;28;20048;-77
2023/12/30 09:14:05;;;;;;;9.80;2.53;;;;;;;8.50;78.92;99413.81;5093612;28;20501;-77
2023/12/30 09:16:34;;;;;;;10.82;2.70;;;;;;;8.51;78.76;99412.88;5092806;28;20051;-78
2023/12/30 09:19:01;;;;;;;17.60;3.20;;;;;;;8.53;79.03;99405.81;5092784;28;20094;-77
2023/12/30 09:21:29;;;;;;;11.55;3.03;;;;;;;8.53;79.34;99409.28;5092369;28;20523;-78
2023/12/30 09:23:57;;;;;;;12.50;3.42;;;;;;;8.55;79.38;99409.19;5093965;28;20105;-78
2023/12/30 09:26:24;;;;;;;17.17;3.28;;;;;;;8.59;79.25;99429.94;5093913;28;20048;-77
2023/12/30 09:28:52;;;;;;;16.92;3.65;;;;;;;8.62;79.26;99422.81;5093529;28;20125;-80
2023/12/30 09:31:24;;;;;;;12.68;2.97;;;;;;;8.62;79.42;99436.78;5093326;28;20406;-77
2023/12/30 09:33:51;;;;;;;13.82;3.15;;;;;;;8.65;79.11;99430.53;5092645;28;20088;-78
2023/12/30 09:36:18;;;;;;;10.35;2.55;;;;;;;8.66;79.29;99430.44;5093671;28;20070;-76
2023/12/30 09:38:44;;;;;;;16.48;3.42;;;;;;;8.67;78.82;99429.50;5093540;28;20507;-76
2023/12/30 09:41:13;;;;;;;12.02;2.80;;;;;;;8.68;78.75;99433.81;5092475;28;20094;-77
2023/12/30 09:43:41;;;;;;;11.10;2.95;;;;;;;8.71;78.76;99433.66;5092721;28;20123;-77
2023/12/30 09:46:09;;;;;;;13.20;2.28;;;;;;;8.72;78.97;99432.72;5092284;28;20546;-77
2023/12/30 09:48:36;;;;;;;9.30;2.28;;;;;;;8.72;78.51;99435.34;5093398;28;20093;-78
2023/12/30 09:51:04;;;;;;;11.80;2.38;;;;;;;8.77;79.25;99431.63;5093418;28;20040;-81
2023/12/30 09:53:31;;;;;;;10.00;3.22;;;;;;;8.78;78.96;99441.22;5092493;28;20040;-80
2023/12/30 09:55:58;;;;;;;13.10;2.67;;;;;;;8.79;79.00;99448.97;5093353;28;20048;-81
2023/12/30 09:58:24;;;;;;;14.75;3.58;;;;;;;8.82;78.78;99445.38;5092743;28;20072;-80
2023/12/30 10:00:51;;;;;;;12.25;3.90;;;;;;;8.84;78.96;99454.00;5092791;28;20043;-82
2023/12/30 10:03:18;;;;;;;12.55;2.13;;;;;;;8.88;79.12;99452.03;5091815;28;20056;-81
2023/12/30 10:05:45;;;;;;;11.13;1.98;;;;;;;8.91;78.85;99450.09;5092641;28;20054;-80
2023/12/30 10:08:14;;;;;;;14.07;2.90;;;;;;;8.94;79.01;99455.16;5090692;28;20062;-81
2023/12/30 10:10:46;;;;;;;16.77;2.45;;;;;;;8.97;78.70;99457.63;5092821;28;20051;-83
2023/12/30 10:13:16;;;;;;;9.73;2.00;;;;;;;8.99;78.90;99458.41;5091609;28;20373;-80
2023/12/30 10:15:42;;;;;;;9.20;2.75;;;;;;;9.03;78.71;99453.81;5092962;28;20168;-83
2023/12/30 10:18:09;;;;;;;14.85;2.83;;;;;;;9.05;78.62;99456.38;5092883;28;20063;-80
2023/12/30 10:20:39;;;;;;;11.55;2.17;;;;;;;9.06;78.71;99442.28;5092764;28;20048;-79
2023/12/30 10:23:06;;;;;;;8.15;2.15;;;;;;;9.10;79.08;99452.56;5092436;28;20450;-83
2023/12/30 10:25:34;;;;;;;7.88;2.20;;;;;;;9.13;79.27;99452.38;5092399;28;20043;-82
2023/12/30 10:28:01;;;;;;;12.23;2.80;;;;;;;9.17;79.10;99450.44;5091248;28;20052;-81
2023/12/30 10:30:31;;;;;;;15.57;3.03;;;;;;;9.20;79.39;99452.88;5092312;28;20089;-83
2023/12/30 10:33:09;;;;;;;11.70;2.22;;;;;;;9.21;77.26;99445.84;5092343;28;20058;-82
2023/12/30 10:35:39;;;;;;;15.73;3.08;;;;;;;9.26;78.41;99456.94;5092427;28;20101;-80
2023/12/30 10:38:07;;;;;;;13.55;2.55;;;;;;;9.28;78.63;99444.56;5091186;28;20055;-81
2023/12/30 10:40:34;;;;;;;15.82;2.50;;;;;;;9.34;79.03;99451.22;5091920;28;20500;-79
2023/12/30 10:43:02;;;;;;;11.65;2.10;;;;;;;9.37;79.02;99466.81;5092277;28;20067;-81
2023/12/30 10:45:30;;;;;;;11.75;2.05;;;;;;;9.39;79.27;99454.47;5091151;28;20048;-84
2023/12/30 10:47:59;;;;;;;15.15;2.50;;;;;;;9.44;79.41;99449.78;5090966;28;20083;-79
2023/12/30 10:50:26;;;;;;;17.55;2.67;;;;;;;9.49;79.73;99445.13;5091797;28;20067;-81
2023/12/30 10:53:08;;;;;;;18.38;3.03;;;;;;;9.54;77.90;99444.88;5090784;28;20489;-80
2023/12/30 10:55:36;;;;;;;10.27;2.55;;;;;;;9.61;78.76;99443.56;5090725;28;20048;-82
2023/12/30 10:58:09;;;;;;;13.20;2.70;;;;;;;9.67;79.49;99430.97;5092089;28;20059;-80
2023/12/30 11:00:36;;;;;;;12.98;2.70;;;;;;;9.74;79.27;99427.94;5092021;28;20052;-79
2023/12/30 11:03:04;;;;;;;12.70;2.90;;;;;;;9.79;79.25;99435.53;5090546;28;20098;-79
2023/12/30 11:05:38;;;;;;;14.57;2.85;;;;;;;9.84;78.15;99448.41;5092312;28;20094;-82
2023/12/30 11:08:05;;;;;;;11.38;2.92;;;;;;;9.89;78.91;99436.69;5092017;28;20050;-82
2023/12/30 11:10:33;;;;;;;11.48;2.78;;;;;;;9.93;79.02;99439.97;5091553;28;20532;-80
2023/12/30 11:15:38;;;;;;;13.10;2.63;;;;;;;10.02;79.19;99421.00;5441300;22;20063;-74
2023/12/30 11:18:05;;;;;;;9.52;3.33;;;;;;;10.08;78.97;99424.19;5090616;28;20135;-73
2023/12/30 11:20:35;;;;;;;13.25;3.20;;;;;;;10.10;77.87;99425.81;5092608;28;20404;-74
2023/12/30 11:25:42;;;;;;;16.50;3.30;;;;;;;10.10;73.99;99441.56;5037770;22;20051;-74
2023/12/30 11:28:17;;;;;;;9.10;2.53;;;;;;;10.16;75.97;99448.25;5091833;28;20058;-72
2023/12/30 11:30:54;;;;;;;19.25;3.15;;;;;;;10.19;77.49;99448.09;5091805;28;20051;-72
2023/12/30 11:33:21;;;;;;;16.10;3.85;;;;;;;10.20;77.12;99447.13;5091238;28;20051;-73
2023/12/30 11:35:51;;;;;;;13.60;3.05;;;;;;;10.19;77.20;99441.97;5090989;28;20058;-76
2023/12/30 11:38:19;;;;;;;13.07;2.97;;;;;;;10.21;78.07;99440.09;5084561;28;20052;-75
2023/12/30 11:40:51;;;;;;;11.82;2.60;;;;;;;10.22;76.68;99452.31;5085213;28;20132;-75
2023/12/30 11:43:22;;;;;;;17.80;3.20;;;;;;;10.23;75.97;99446.97;5079755;28;20056;-74